sensor_id;sensor_type;location;lat;lon;timestamp;P1;durP1;ratioP1;P2;durP2;ratioP2
50549;SDS011;36505;52.512;13.460;2022-09-09T00:00:26;9.70;;;6.85;;
50549;SDS011;36505;52.512;13.460;2022-09-09T00:05:39;12.13;;;6.78;;
50549;SDS011;36505;52.512;13.460;2022-09-09T00:11:21;8.60;;;6.13;;
50549;SDS011;36505;52.512;13.460;2022-09-09T00:13:52;11.35;;;6.90;;
50549;SDS011;36505;52.512;13.460;2022-09-09T00:16:24;9.70;;;6.28;;
50549;SDS011;36505;52.512;13.460;2022-09-09T00:21:33;15.55;;;7.13;;
50549;SDS011;36505;52.512;13.460;2022-09-09T00:24:00;7.93;;;6.53;;
50549;SDS011;36505;52.512;13.460;2022-09-09T00:31:55;9.02;;;6.75;;
50549;SDS011;36505;52.512;13.460;2022-09-09T00:34:25;11.68;;;6.38;;
50549;SDS011;36505;52.512;13.460;2022-09-09T00:36:52;8.98;;;6.95;;
50549;SDS011;36505;52.512;13.460;2022-09-09T00:39:29;12.57;;;7.03;;
50549;SDS011;36505;52.512;13.460;2022-09-09T00:44:34;11.63;;;7.00;;
50549;SDS011;36505;52.512;13.460;2022-09-09T00:47:09;9.00;;;6.82;;
50549;SDS011;36505;52.512;13.460;2022-09-09T00:52:26;12.07;;;6.80;;
50549;SDS011;36505;52.512;13.460;2022-09-09T00:55:14;11.15;;;6.75;;
50549;SDS011;36505;52.512;13.460;2022-09-09T00:57:45;10.80;;;6.90;;
50549;SDS011;36505;52.512;13.460;2022-09-09T01:11:55;8.32;;;6.07;;
50549;SDS011;36505;52.512;13.460;2022-09-09T01:16:59;9.00;;;6.85;;
50549;SDS011;36505;52.512;13.460;2022-09-09T01:19:52;8.60;;;6.15;;
50549;SDS011;36505;52.512;13.460;2022-09-09T01:25:22;9.15;;;6.05;;
50549;SDS011;36505;52.512;13.460;2022-09-09T01:27:51;9.93;;;6.80;;
50549;SDS011;36505;52.512;13.460;2022-09-09T01:30:19;8.68;;;6.68;;
50549;SDS011;36505;52.512;13.460;2022-09-09T01:32:50;6.95;;;6.00;;
50549;SDS011;36505;52.512;13.460;2022-09-09T01:37:57;6.80;;;5.63;;
50549;SDS011;36505;52.512;13.460;2022-09-09T01:40:24;10.45;;;6.05;;
50549;SDS011;36505;52.512;13.460;2022-09-09T01:42:50;9.88;;;6.25;;
50549;SDS011;36505;52.512;13.460;2022-09-09T01:45:16;8.68;;;6.65;;
50549;SDS011;36505;52.512;13.460;2022-09-09T01:47:41;7.30;;;5.30;;
50549;SDS011;36505;52.512;13.460;2022-09-09T01:50:08;7.60;;;5.82;;
50549;SDS011;36505;52.512;13.460;2022-09-09T01:52:37;11.30;;;6.57;;
50549;SDS011;36505;52.512;13.460;2022-09-09T01:55:04;11.25;;;7.15;;
50549;SDS011;36505;52.512;13.460;2022-09-09T01:57:31;10.95;;;7.20;;
50549;SDS011;36505;52.512;13.460;2022-09-09T02:02:54;14.82;;;8.88;;
50549;SDS011;36505;52.512;13.460;2022-09-09T02:05:30;11.30;;;6.82;;
50549;SDS011;36505;52.512;13.460;2022-09-09T02:10:37;8.77;;;6.45;;
50549;SDS011;36505;52.512;13.460;2022-09-09T02:13:11;9.98;;;7.05;;
50549;SDS011;36505;52.512;13.460;2022-09-09T02:18:42;8.23;;;6.20;;
50549;SDS011;36505;52.512;13.460;2022-09-09T02:21:15;8.00;;;6.25;;
50549;SDS011;36505;52.512;13.460;2022-09-09T02:23:42;8.38;;;6.00;;
50549;SDS011;36505;52.512;13.460;2022-09-09T02:26:10;8.80;;;6.90;;
50549;SDS011;36505;52.512;13.460;2022-09-09T02:28:38;9.23;;;6.47;;
50549;SDS011;36505;52.512;13.460;2022-09-09T02:31:05;10.70;;;6.35;;
50549;SDS011;36505;52.512;13.460;2022-09-09T02:33:37;9.30;;;5.85;;
50549;SDS011;36505;52.512;13.460;2022-09-09T02:36:06;8.07;;;6.05;;
50549;SDS011;36505;52.512;13.460;2022-09-09T02:38:36;7.82;;;6.10;;
50549;SDS011;36505;52.512;13.460;2022-09-09T02:41:06;9.60;;;5.80;;
50549;SDS011;36505;52.512;13.460;2022-09-09T02:43:34;7.60;;;5.55;;
50549;SDS011;36505;52.512;13.460;2022-09-09T02:46:08;10.25;;;5.28;;
50549;SDS011;36505;52.512;13.460;2022-09-09T02:51:54;7.82;;;5.72;;
50549;SDS011;36505;52.512;13.460;2022-09-09T02:54:33;11.57;;;6.28;;
50549;SDS011;36505;52.512;13.460;2022-09-09T02:57:11;11.30;;;5.85;;
50549;SDS011;36505;52.512;13.460;2022-09-09T02:59:36;9.48;;;6.00;;
50549;SDS011;36505;52.512;13.460;2022-09-09T03:02:03;7.45;;;5.15;;
50549;SDS011;36505;52.512;13.460;2022-09-09T03:04:29;6.93;;;5.20;;
50549;SDS011;36505;52.512;13.460;2022-09-09T03:06:56;8.10;;;5.35;;
50549;SDS011;36505;52.512;13.460;2022-09-09T03:09:22;9.00;;;6.05;;
50549;SDS011;36505;52.512;13.460;2022-09-09T03:11:48;7.35;;;5.75;;
50549;SDS011;36505;52.512;13.460;2022-09-09T03:14:14;7.18;;;5.93;;
50549;SDS011;36505;52.512;13.460;2022-09-09T03:16:40;9.00;;;5.97;;
50549;SDS011;36505;52.512;13.460;2022-09-09T03:19:07;11.63;;;5.63;;
50549;SDS011;36505;52.512;13.460;2022-09-09T03:21:32;8.18;;;5.78;;
50549;SDS011;36505;52.512;13.460;2022-09-09T03:23:57;7.75;;;5.53;;
50549;SDS011;36505;52.512;13.460;2022-09-09T03:26:23;11.88;;;6.32;;
50549;SDS011;36505;52.512;13.460;2022-09-09T03:28:48;7.68;;;5.55;;
50549;SDS011;36505;52.512;13.460;2022-09-09T03:31:15;7.07;;;5.18;;
50549;SDS011;36505;52.512;13.460;2022-09-09T03:33:40;8.73;;;5.75;;
50549;SDS011;36505;52.512;13.460;2022-09-09T03:36:08;7.82;;;5.57;;
50549;SDS011;36505;52.512;13.460;2022-09-09T03:38:34;10.60;;;5.57;;
50549;SDS011;36505;52.512;13.460;2022-09-09T03:40:59;12.32;;;5.30;;
50549;SDS011;36505;52.512;13.460;2022-09-09T03:43:27;7.63;;;5.15;;
50549;SDS011;36505;52.512;13.460;2022-09-09T03:45:53;6.93;;;4.70;;
50549;SDS011;36505;52.512;13.460;2022-09-09T03:48:22;9.77;;;5.53;;
50549;SDS011;36505;52.512;13.460;2022-09-09T03:50:49;8.00;;;4.88;;
50549;SDS011;36505;52.512;13.460;2022-09-09T03:53:15;10.48;;;4.68;;
50549;SDS011;36505;52.512;13.460;2022-09-09T03:55:45;10.60;;;5.53;;
50549;SDS011;36505;52.512;13.460;2022-09-09T03:58:12;7.15;;;5.60;;
50549;SDS011;36505;52.512;13.460;2022-09-09T04:00:39;8.65;;;5.15;;
50549;SDS011;36505;52.512;13.460;2022-09-09T04:03:11;8.88;;;4.90;;
50549;SDS011;36505;52.512;13.460;2022-09-09T04:05:38;7.82;;;4.93;;
50549;SDS011;36505;52.512;13.460;2022-09-09T04:08:06;8.57;;;5.00;;
50549;SDS011;36505;52.512;13.460;2022-09-09T04:10:31;10.88;;;5.13;;
50549;SDS011;36505;52.512;13.460;2022-09-09T04:12:57;5.80;;;4.63;;
50549;SDS011;36505;52.512;13.460;2022-09-09T04:15:22;7.40;;;5.13;;
50549;SDS011;36505;52.512;13.460;2022-09-09T04:17:47;7.15;;;4.85;;
50549;SDS011;36505;52.512;13.460;2022-09-09T04:20:13;9.80;;;6.10;;
50549;SDS011;36505;52.512;13.460;2022-09-09T04:22:38;7.75;;;5.20;;
50549;SDS011;36505;52.512;13.460;2022-09-09T04:25:04;10.23;;;5.40;;
50549;SDS011;36505;52.512;13.460;2022-09-09T04:27:31;11.80;;;5.55;;
50549;SDS011;36505;52.512;13.460;2022-09-09T04:29:56;9.23;;;5.43;;
50549;SDS011;36505;52.512;13.460;2022-09-09T04:32:22;10.23;;;6.47;;
50549;SDS011;36505;52.512;13.460;2022-09-09T04:34:47;8.75;;;5.68;;
50549;SDS011;36505;52.512;13.460;2022-09-09T04:37:13;9.80;;;6.00;;
50549;SDS011;36505;52.512;13.460;2022-09-09T04:39:39;6.22;;;4.90;;
50549;SDS011;36505;52.512;13.460;2022-09-09T04:42:04;9.88;;;6.10;;
50549;SDS011;36505;52.512;13.460;2022-09-09T04:44:29;12.23;;;5.75;;
50549;SDS011;36505;52.512;13.460;2022-09-09T04:46:55;9.43;;;5.45;;
50549;SDS011;36505;52.512;13.460;2022-09-09T04:49:21;7.72;;;5.80;;
50549;SDS011;36505;52.512;13.460;2022-09-09T04:51:48;9.25;;;5.68;;
50549;SDS011;36505;52.512;13.460;2022-09-09T04:54:14;10.95;;;4.65;;
50549;SDS011;36505;52.512;13.460;2022-09-09T04:56:39;9.57;;;5.18;;
50549;SDS011;36505;52.512;13.460;2022-09-09T04:59:06;9.50;;;5.65;;
50549;SDS011;36505;52.512;13.460;2022-09-09T05:01:31;9.18;;;4.72;;
50549;SDS011;36505;52.512;13.460;2022-09-09T05:03:57;11.88;;;5.68;;
50549;SDS011;36505;52.512;13.460;2022-09-09T05:06:23;12.20;;;5.30;;
50549;SDS011;36505;52.512;13.460;2022-09-09T05:08:48;16.58;;;4.82;;
50549;SDS011;36505;52.512;13.460;2022-09-09T05:11:21;15.38;;;4.70;;
50549;SDS011;36505;52.512;13.460;2022-09-09T05:13:52;6.55;;;4.47;;
50549;SDS011;36505;52.512;13.460;2022-09-09T05:16:18;13.00;;;4.55;;
50549;SDS011;36505;52.512;13.460;2022-09-09T05:18:44;10.43;;;4.20;;
50549;SDS011;36505;52.512;13.460;2022-09-09T05:21:14;9.05;;;4.82;;
50549;SDS011;36505;52.512;13.460;2022-09-09T05:23:40;10.60;;;4.15;;
50549;SDS011;36505;52.512;13.460;2022-09-09T05:26:06;11.80;;;6.32;;
50549;SDS011;36505;52.512;13.460;2022-09-09T05:28:34;14.57;;;4.72;;
50549;SDS011;36505;52.512;13.460;2022-09-09T05:31:03;8.10;;;4.25;;
50549;SDS011;36505;52.512;13.460;2022-09-09T05:33:32;9.80;;;4.00;;
50549;SDS011;36505;52.512;13.460;2022-09-09T05:36:01;12.23;;;4.45;;
50549;SDS011;36505;52.512;13.460;2022-09-09T05:38:28;10.80;;;4.57;;
50549;SDS011;36505;52.512;13.460;2022-09-09T05:40:54;9.15;;;4.57;;
50549;SDS011;36505;52.512;13.460;2022-09-09T05:43:21;8.88;;;4.28;;
50549;SDS011;36505;52.512;13.460;2022-09-09T05:45:48;8.75;;;3.63;;
50549;SDS011;36505;52.512;13.460;2022-09-09T05:48:23;7.97;;;4.28;;
50549;SDS011;36505;52.512;13.460;2022-09-09T05:50:52;9.50;;;4.47;;
50549;SDS011;36505;52.512;13.460;2022-09-09T05:53:19;12.93;;;4.75;;
50549;SDS011;36505;52.512;13.460;2022-09-09T05:55:45;7.38;;;3.83;;
50549;SDS011;36505;52.512;13.460;2022-09-09T05:58:10;18.00;;;4.22;;
50549;SDS011;36505;52.512;13.460;2022-09-09T06:00:36;7.22;;;3.95;;
50549;SDS011;36505;52.512;13.460;2022-09-09T06:03:02;7.68;;;4.30;;
50549;SDS011;36505;52.512;13.460;2022-09-09T06:05:28;11.73;;;3.92;;
50549;SDS011;36505;52.512;13.460;2022-09-09T06:07:54;8.63;;;3.90;;
50549;SDS011;36505;52.512;13.460;2022-09-09T06:10:20;7.47;;;3.47;;
50549;SDS011;36505;52.512;13.460;2022-09-09T06:12:46;7.78;;;3.97;;
50549;SDS011;36505;52.512;13.460;2022-09-09T06:15:11;7.97;;;3.08;;
50549;SDS011;36505;52.512;13.460;2022-09-09T06:17:37;6.43;;;3.22;;
50549;SDS011;36505;52.512;13.460;2022-09-09T06:20:03;8.05;;;3.38;;
50549;SDS011;36505;52.512;13.460;2022-09-09T06:22:30;11.48;;;3.70;;
50549;SDS011;36505;52.512;13.460;2022-09-09T06:24:56;7.55;;;3.17;;
50549;SDS011;36505;52.512;13.460;2022-09-09T06:27:21;8.30;;;2.50;;
50549;SDS011;36505;52.512;13.460;2022-09-09T06:29:46;6.55;;;2.38;;
50549;SDS011;36505;52.512;13.460;2022-09-09T06:32:13;4.15;;;2.13;;
50549;SDS011;36505;52.512;13.460;2022-09-09T06:34:38;6.60;;;2.20;;
50549;SDS011;36505;52.512;13.460;2022-09-09T06:37:03;6.20;;;1.90;;
50549;SDS011;36505;52.512;13.460;2022-09-09T06:39:29;3.30;;;1.65;;
50549;SDS011;36505;52.512;13.460;2022-09-09T06:41:55;4.32;;;1.73;;
50549;SDS011;36505;52.512;13.460;2022-09-09T06:44:20;7.15;;;1.83;;
50549;SDS011;36505;52.512;13.460;2022-09-09T06:46:49;3.90;;;1.92;;
50549;SDS011;36505;52.512;13.460;2022-09-09T06:49:15;5.22;;;2.17;;
50549;SDS011;36505;52.512;13.460;2022-09-09T06:51:40;8.85;;;3.10;;
50549;SDS011;36505;52.512;13.460;2022-09-09T06:54:07;10.85;;;2.60;;
50549;SDS011;36505;52.512;13.460;2022-09-09T06:56:34;9.63;;;2.35;;
50549;SDS011;36505;52.512;13.460;2022-09-09T06:59:02;5.40;;;2.63;;
50549;SDS011;36505;52.512;13.460;2022-09-09T07:01:34;8.35;;;1.67;;
50549;SDS011;36505;52.512;13.460;2022-09-09T07:04:01;7.07;;;1.80;;
50549;SDS011;36505;52.512;13.460;2022-09-09T07:06:33;2.80;;;1.70;;
50549;SDS011;36505;52.512;13.460;2022-09-09T07:09:00;6.30;;;1.88;;
50549;SDS011;36505;52.512;13.460;2022-09-09T07:11:33;2.95;;;1.65;;
50549;SDS011;36505;52.512;13.460;2022-09-09T07:14:08;3.42;;;1.42;;
50549;SDS011;36505;52.512;13.460;2022-09-09T07:16:35;7.32;;;1.58;;
50549;SDS011;36505;52.512;13.460;2022-09-09T07:19:02;6.03;;;1.90;;
50549;SDS011;36505;52.512;13.460;2022-09-09T07:21:29;9.00;;;2.13;;
50549;SDS011;36505;52.512;13.460;2022-09-09T07:23:56;4.22;;;1.80;;
50549;SDS011;36505;52.512;13.460;2022-09-09T07:26:25;15.85;;;2.38;;
50549;SDS011;36505;52.512;13.460;2022-09-09T07:28:53;8.30;;;1.60;;
50549;SDS011;36505;52.512;13.460;2022-09-09T07:31:28;9.40;;;1.90;;
50549;SDS011;36505;52.512;13.460;2022-09-09T07:33:56;4.00;;;1.60;;
50549;SDS011;36505;52.512;13.460;2022-09-09T07:36:22;3.47;;;1.40;;
50549;SDS011;36505;52.512;13.460;2022-09-09T07:38:51;3.92;;;1.30;;
50549;SDS011;36505;52.512;13.460;2022-09-09T07:41:20;7.05;;;1.30;;
50549;SDS011;36505;52.512;13.460;2022-09-09T07:43:53;4.75;;;1.50;;
50549;SDS011;36505;52.512;13.460;2022-09-09T07:46:39;3.42;;;1.42;;
50549;SDS011;36505;52.512;13.460;2022-09-09T07:49:09;7.57;;;1.35;;
50549;SDS011;36505;52.512;13.460;2022-09-09T07:51:36;3.08;;;1.10;;
50549;SDS011;36505;52.512;13.460;2022-09-09T07:54:12;3.92;;;1.20;;
50549;SDS011;36505;52.512;13.460;2022-09-09T07:57:06;4.30;;;1.17;;
50549;SDS011;36505;52.512;13.460;2022-09-09T07:59:35;4.53;;;1.40;;
50549;SDS011;36505;52.512;13.460;2022-09-09T08:02:00;6.75;;;1.30;;
50549;SDS011;36505;52.512;13.460;2022-09-09T08:04:26;4.78;;;1.23;;
50549;SDS011;36505;52.512;13.460;2022-09-09T08:06:57;3.70;;;1.27;;
50549;SDS011;36505;52.512;13.460;2022-09-09T08:09:24;4.75;;;1.95;;
50549;SDS011;36505;52.512;13.460;2022-09-09T08:11:52;4.38;;;1.50;;
50549;SDS011;36505;52.512;13.460;2022-09-09T08:14:18;4.85;;;1.77;;
50549;SDS011;36505;52.512;13.460;2022-09-09T08:16:45;5.97;;;1.70;;
50549;SDS011;36505;52.512;13.460;2022-09-09T08:19:12;5.88;;;1.45;;
50549;SDS011;36505;52.512;13.460;2022-09-09T08:21:39;4.22;;;1.50;;
50549;SDS011;36505;52.512;13.460;2022-09-09T08:24:06;7.25;;;3.47;;
50549;SDS011;36505;52.512;13.460;2022-09-09T08:26:34;5.88;;;2.15;;
50549;SDS011;36505;52.512;13.460;2022-09-09T08:29:01;5.75;;;1.85;;
50549;SDS011;36505;52.512;13.460;2022-09-09T08:31:29;3.60;;;1.23;;
50549;SDS011;36505;52.512;13.460;2022-09-09T08:33:57;3.72;;;1.33;;
50549;SDS011;36505;52.512;13.460;2022-09-09T08:36:28;3.30;;;1.13;;
50549;SDS011;36505;52.512;13.460;2022-09-09T08:38:56;8.38;;;3.00;;
50549;SDS011;36505;52.512;13.460;2022-09-09T08:44:34;4.43;;;1.58;;
50549;SDS011;36505;52.512;13.460;2022-09-09T08:50:36;6.30;;;1.50;;
50549;SDS011;36505;52.512;13.460;2022-09-09T08:53:08;7.10;;;2.13;;
50549;SDS011;36505;52.512;13.460;2022-09-09T08:58:26;5.47;;;1.90;;
50549;SDS011;36505;52.512;13.460;2022-09-09T09:11:52;7.10;;;1.70;;
50549;SDS011;36505;52.512;13.460;2022-09-09T09:14:20;3.88;;;1.42;;
50549;SDS011;36505;52.512;13.460;2022-09-09T09:19:21;6.97;;;1.80;;
50549;SDS011;36505;52.512;13.460;2022-09-09T09:21:58;9.07;;;2.88;;
50549;SDS011;36505;52.512;13.460;2022-09-09T09:27:14;6.70;;;1.65;;
50549;SDS011;36505;52.512;13.460;2022-09-09T09:29:46;8.38;;;1.20;;
50549;SDS011;36505;52.512;13.460;2022-09-09T09:32:16;4.78;;;1.35;;
50549;SDS011;36505;52.512;13.460;2022-09-09T09:34:48;6.15;;;1.52;;
50549;SDS011;36505;52.512;13.460;2022-09-09T09:37:17;4.53;;;1.63;;
50549;SDS011;36505;52.512;13.460;2022-09-09T09:39:52;5.50;;;1.85;;
50549;SDS011;36505;52.512;13.460;2022-09-09T09:42:18;9.18;;;1.25;;
50549;SDS011;36505;52.512;13.460;2022-09-09T09:44:44;6.35;;;1.50;;
50549;SDS011;36505;52.512;13.460;2022-09-09T09:47:16;4.32;;;1.35;;
50549;SDS011;36505;52.512;13.460;2022-09-09T09:49:58;5.57;;;1.40;;
50549;SDS011;36505;52.512;13.460;2022-09-09T09:52:30;2.92;;;1.20;;
50549;SDS011;36505;52.512;13.460;2022-09-09T09:54:59;2.78;;;1.17;;
50549;SDS011;36505;52.512;13.460;2022-09-09T09:57:29;4.68;;;1.52;;
50549;SDS011;36505;52.512;13.460;2022-09-09T10:02:38;7.88;;;1.67;;
50549;SDS011;36505;52.512;13.460;2022-09-09T10:05:20;3.85;;;1.50;;
50549;SDS011;36505;52.512;13.460;2022-09-09T10:13:26;3.83;;;1.38;;
50549;SDS011;36505;52.512;13.460;2022-09-09T10:18:53;5.85;;;1.33;;
50549;SDS011;36505;52.512;13.460;2022-09-09T10:21:38;6.85;;;1.98;;
50549;SDS011;36505;52.512;13.460;2022-09-09T10:27:05;3.45;;;1.30;;
50549;SDS011;36505;52.512;13.460;2022-09-09T10:32:46;4.13;;;1.52;;
50549;SDS011;36505;52.512;13.460;2022-09-09T10:35:26;4.32;;;1.05;;
50549;SDS011;36505;52.512;13.460;2022-09-09T10:37:57;4.88;;;1.20;;
50549;SDS011;36505;52.512;13.460;2022-09-09T10:48:59;3.45;;;1.25;;
50549;SDS011;36505;52.512;13.460;2022-09-09T10:57:39;5.63;;;2.15;;
50549;SDS011;36505;52.512;13.460;2022-09-09T11:00:18;4.05;;;1.13;;
50549;SDS011;36505;52.512;13.460;2022-09-09T11:02:47;5.40;;;1.25;;
50549;SDS011;36505;52.512;13.460;2022-09-09T11:07:54;7.93;;;1.40;;
50549;SDS011;36505;52.512;13.460;2022-09-09T11:10:44;1.70;;;0.93;;
50549;SDS011;36505;52.512;13.460;2022-09-09T11:13:23;8.70;;;2.20;;
50549;SDS011;36505;52.512;13.460;2022-09-09T11:15:55;5.30;;;1.73;;
50549;SDS011;36505;52.512;13.460;2022-09-09T11:18:29;5.45;;;1.35;;
50549;SDS011;36505;52.512;13.460;2022-09-09T11:20:58;4.22;;;1.17;;
50549;SDS011;36505;52.512;13.460;2022-09-09T11:23:36;8.20;;;2.50;;
50549;SDS011;36505;52.512;13.460;2022-09-09T11:26:06;5.53;;;1.50;;
50549;SDS011;36505;52.512;13.460;2022-09-09T11:31:54;4.07;;;0.95;;
50549;SDS011;36505;52.512;13.460;2022-09-09T11:44:37;3.58;;;1.38;;
50549;SDS011;36505;52.512;13.460;2022-09-09T11:47:03;6.25;;;1.73;;
50549;SDS011;36505;52.512;13.460;2022-09-09T11:49:29;3.60;;;1.30;;
50549;SDS011;36505;52.512;13.460;2022-09-09T11:54:52;4.10;;;1.27;;
50549;SDS011;36505;52.512;13.460;2022-09-09T11:57:24;6.30;;;1.40;;
50549;SDS011;36505;52.512;13.460;2022-09-09T12:00:00;3.70;;;1.23;;
50549;SDS011;36505;52.512;13.460;2022-09-09T12:02:27;3.75;;;1.33;;
50549;SDS011;36505;52.512;13.460;2022-09-09T12:04:57;6.03;;;1.50;;
50549;SDS011;36505;52.512;13.460;2022-09-09T12:10:03;5.90;;;1.20;;
50549;SDS011;36505;52.512;13.460;2022-09-09T12:12:33;9.68;;;1.15;;
50549;SDS011;36505;52.512;13.460;2022-09-09T12:17:36;11.18;;;1.17;;
50549;SDS011;36505;52.512;13.460;2022-09-09T12:20:23;4.50;;;1.00;;
50549;SDS011;36505;52.512;13.460;2022-09-09T12:35:00;2.30;;;0.93;;
50549;SDS011;36505;52.512;13.460;2022-09-09T12:37:34;2.13;;;0.82;;
50549;SDS011;36505;52.512;13.460;2022-09-09T12:40:01;5.07;;;0.80;;
50549;SDS011;36505;52.512;13.460;2022-09-09T12:42:29;2.75;;;1.00;;
50549;SDS011;36505;52.512;13.460;2022-09-09T12:44:58;3.10;;;1.02;;
50549;SDS011;36505;52.512;13.460;2022-09-09T12:47:43;2.67;;;0.90;;
50549;SDS011;36505;52.512;13.460;2022-09-09T12:50:16;5.05;;;1.00;;
50549;SDS011;36505;52.512;13.460;2022-09-09T12:52:46;7.30;;;1.55;;
50549;SDS011;36505;52.512;13.460;2022-09-09T12:55:18;8.60;;;1.17;;
50549;SDS011;36505;52.512;13.460;2022-09-09T12:57:56;2.83;;;1.10;;
50549;SDS011;36505;52.512;13.460;2022-09-09T13:00:24;3.17;;;0.82;;
50549;SDS011;36505;52.512;13.460;2022-09-09T13:02:57;4.72;;;1.67;;
50549;SDS011;36505;52.512;13.460;2022-09-09T13:05:28;4.65;;;1.30;;
50549;SDS011;36505;52.512;13.460;2022-09-09T13:08:03;6.82;;;1.52;;
50549;SDS011;36505;52.512;13.460;2022-09-09T13:10:32;5.43;;;1.20;;
50549;SDS011;36505;52.512;13.460;2022-09-09T13:13:00;4.10;;;1.10;;
50549;SDS011;36505;52.512;13.460;2022-09-09T13:15:27;5.68;;;0.88;;
50549;SDS011;36505;52.512;13.460;2022-09-09T13:17:54;2.70;;;0.75;;
50549;SDS011;36505;52.512;13.460;2022-09-09T13:20:22;4.45;;;1.13;;
50549;SDS011;36505;52.512;13.460;2022-09-09T13:22:49;5.68;;;0.80;;
50549;SDS011;36505;52.512;13.460;2022-09-09T13:25:21;2.83;;;0.82;;
50549;SDS011;36505;52.512;13.460;2022-09-09T13:27:56;8.02;;;1.15;;
50549;SDS011;36505;52.512;13.460;2022-09-09T13:30:33;6.13;;;1.00;;
50549;SDS011;36505;52.512;13.460;2022-09-09T13:35:34;6.88;;;2.83;;
50549;SDS011;36505;52.512;13.460;2022-09-09T13:38:07;5.38;;;1.90;;
50549;SDS011;36505;52.512;13.460;2022-09-09T13:40:34;6.25;;;2.53;;
50549;SDS011;36505;52.512;13.460;2022-09-09T13:43:00;2.42;;;1.70;;
50549;SDS011;36505;52.512;13.460;2022-09-09T13:45:27;4.07;;;1.42;;
50549;SDS011;36505;52.512;13.460;2022-09-09T13:47:53;3.97;;;1.42;;
50549;SDS011;36505;52.512;13.460;2022-09-09T13:50:29;4.00;;;0.90;;
50549;SDS011;36505;52.512;13.460;2022-09-09T13:52:58;4.78;;;0.95;;
50549;SDS011;36505;52.512;13.460;2022-09-09T13:55:25;10.18;;;1.25;;
50549;SDS011;36505;52.512;13.460;2022-09-09T13:57:55;4.07;;;1.13;;
50549;SDS011;36505;52.512;13.460;2022-09-09T14:00:22;10.00;;;2.15;;
50549;SDS011;36505;52.512;13.460;2022-09-09T14:02:52;4.13;;;1.17;;
50549;SDS011;36505;52.512;13.460;2022-09-09T14:05:19;5.18;;;2.10;;
50549;SDS011;36505;52.512;13.460;2022-09-09T14:07:47;3.85;;;1.77;;
50549;SDS011;36505;52.512;13.460;2022-09-09T14:10:13;3.00;;;1.23;;
50549;SDS011;36505;52.512;13.460;2022-09-09T14:12:38;6.80;;;1.20;;
50549;SDS011;36505;52.512;13.460;2022-09-09T14:15:05;5.28;;;1.15;;
50549;SDS011;36505;52.512;13.460;2022-09-09T14:17:32;3.85;;;0.98;;
50549;SDS011;36505;52.512;13.460;2022-09-09T14:19:58;3.92;;;1.00;;
50549;SDS011;36505;52.512;13.460;2022-09-09T14:22:23;2.20;;;0.80;;
50549;SDS011;36505;52.512;13.460;2022-09-09T14:24:49;4.43;;;1.10;;
50549;SDS011;36505;52.512;13.460;2022-09-09T14:27:15;3.50;;;0.95;;
50549;SDS011;36505;52.512;13.460;2022-09-09T14:29:41;5.75;;;0.98;;
50549;SDS011;36505;52.512;13.460;2022-09-09T14:32:08;3.78;;;1.08;;
50549;SDS011;36505;52.512;13.460;2022-09-09T14:34:33;4.55;;;0.95;;
50549;SDS011;36505;52.512;13.460;2022-09-09T14:37:00;5.45;;;1.23;;
50549;SDS011;36505;52.512;13.460;2022-09-09T14:39:25;6.43;;;1.10;;
50549;SDS011;36505;52.512;13.460;2022-09-09T14:41:51;2.65;;;1.15;;
50549;SDS011;36505;52.512;13.460;2022-09-09T14:44:16;3.13;;;1.13;;
50549;SDS011;36505;52.512;13.460;2022-09-09T14:46:41;3.13;;;0.82;;
50549;SDS011;36505;52.512;13.460;2022-09-09T14:49:09;3.42;;;1.10;;
50549;SDS011;36505;52.512;13.460;2022-09-09T14:51:35;3.03;;;1.30;;
50549;SDS011;36505;52.512;13.460;2022-09-09T14:54:00;2.45;;;1.05;;
50549;SDS011;36505;52.512;13.460;2022-09-09T14:56:28;4.35;;;1.08;;
50549;SDS011;36505;52.512;13.460;2022-09-09T14:58:56;4.50;;;1.20;;
50549;SDS011;36505;52.512;13.460;2022-09-09T15:01:23;5.30;;;1.27;;
50549;SDS011;36505;52.512;13.460;2022-09-09T15:08:51;7.80;;;1.50;;
50549;SDS011;36505;52.512;13.460;2022-09-09T15:11:17;5.70;;;3.05;;
50549;SDS011;36505;52.512;13.460;2022-09-09T15:13:43;9.77;;;3.45;;
50549;SDS011;36505;52.512;13.460;2022-09-09T15:16:15;4.90;;;2.08;;
50549;SDS011;36505;52.512;13.460;2022-09-09T15:18:42;8.30;;;1.70;;
50549;SDS011;36505;52.512;13.460;2022-09-09T15:21:14;4.68;;;1.30;;
50549;SDS011;36505;52.512;13.460;2022-09-09T15:23:41;7.70;;;1.73;;
50549;SDS011;36505;52.512;13.460;2022-09-09T15:26:07;4.18;;;0.90;;
50549;SDS011;36505;52.512;13.460;2022-09-09T15:28:34;4.88;;;1.52;;
50549;SDS011;36505;52.512;13.460;2022-09-09T15:31:04;5.25;;;1.05;;
50549;SDS011;36505;52.512;13.460;2022-09-09T15:33:35;4.13;;;0.70;;
50549;SDS011;36505;52.512;13.460;2022-09-09T15:36:18;2.33;;;1.05;;
50549;SDS011;36505;52.512;13.460;2022-09-09T15:38:45;1.65;;;0.70;;
50549;SDS011;36505;52.512;13.460;2022-09-09T15:41:11;6.38;;;1.20;;
50549;SDS011;36505;52.512;13.460;2022-09-09T15:43:37;2.35;;;0.80;;
50549;SDS011;36505;52.512;13.460;2022-09-09T15:46:21;2.80;;;0.90;;
50549;SDS011;36505;52.512;13.460;2022-09-09T15:49:14;1.75;;;0.68;;
50549;SDS011;36505;52.512;13.460;2022-09-09T15:51:46;3.92;;;0.85;;
50549;SDS011;36505;52.512;13.460;2022-09-09T15:54:19;4.15;;;1.05;;
50549;SDS011;36505;52.512;13.460;2022-09-09T15:56:49;2.97;;;0.80;;
50549;SDS011;36505;52.512;13.460;2022-09-09T15:59:20;1.23;;;0.68;;
50549;SDS011;36505;52.512;13.460;2022-09-09T16:01:47;6.47;;;1.70;;
50549;SDS011;36505;52.512;13.460;2022-09-09T16:04:16;5.57;;;1.10;;
50549;SDS011;36505;52.512;13.460;2022-09-09T16:06:48;3.95;;;0.63;;
50549;SDS011;36505;52.512;13.460;2022-09-09T16:09:17;5.38;;;1.00;;
50549;SDS011;36505;52.512;13.460;2022-09-09T16:11:44;5.97;;;1.55;;
50549;SDS011;36505;52.512;13.460;2022-09-09T16:14:09;7.65;;;0.85;;
50549;SDS011;36505;52.512;13.460;2022-09-09T16:16:35;2.70;;;0.90;;
50549;SDS011;36505;52.512;13.460;2022-09-09T16:19:08;3.67;;;1.30;;
50549;SDS011;36505;52.512;13.460;2022-09-09T16:21:37;9.32;;;1.67;;
50549;SDS011;36505;52.512;13.460;2022-09-09T16:24:14;3.55;;;1.30;;
50549;SDS011;36505;52.512;13.460;2022-09-09T16:26:43;2.70;;;1.10;;
50549;SDS011;36505;52.512;13.460;2022-09-09T16:29:10;8.00;;;3.05;;
50549;SDS011;36505;52.512;13.460;2022-09-09T16:31:36;2.60;;;1.00;;
50549;SDS011;36505;52.512;13.460;2022-09-09T16:34:02;6.85;;;1.40;;
50549;SDS011;36505;52.512;13.460;2022-09-09T16:36:29;3.60;;;1.38;;
50549;SDS011;36505;52.512;13.460;2022-09-09T16:38:57;4.57;;;1.38;;
50549;SDS011;36505;52.512;13.460;2022-09-09T16:41:25;4.88;;;1.42;;
50549;SDS011;36505;52.512;13.460;2022-09-09T16:43:56;6.72;;;1.15;;
50549;SDS011;36505;52.512;13.460;2022-09-09T16:46:27;8.70;;;1.92;;
50549;SDS011;36505;52.512;13.460;2022-09-09T16:48:53;6.55;;;1.92;;
50549;SDS011;36505;52.512;13.460;2022-09-09T16:51:23;7.53;;;1.38;;
50549;SDS011;36505;52.512;13.460;2022-09-09T16:53:53;4.43;;;1.40;;
50549;SDS011;36505;52.512;13.460;2022-09-09T16:56:23;4.75;;;1.40;;
50549;SDS011;36505;52.512;13.460;2022-09-09T16:58:54;6.75;;;1.38;;
50549;SDS011;36505;52.512;13.460;2022-09-09T17:01:21;6.22;;;1.60;;
50549;SDS011;36505;52.512;13.460;2022-09-09T17:03:51;7.72;;;1.73;;
50549;SDS011;36505;52.512;13.460;2022-09-09T17:06:17;3.30;;;1.83;;
50549;SDS011;36505;52.512;13.460;2022-09-09T17:08:43;6.47;;;2.10;;
50549;SDS011;36505;52.512;13.460;2022-09-09T17:11:15;4.05;;;2.13;;
50549;SDS011;36505;52.512;13.460;2022-09-09T17:13:43;7.85;;;1.90;;
50549;SDS011;36505;52.512;13.460;2022-09-09T17:16:10;3.80;;;1.80;;